createdAt,value
2023-01-17T00:02:26.371Z,95237.69
2023-01-17T00:05:14.657Z,95244.63
2023-01-17T00:08:01.557Z,95249.44
2023-01-17T00:10:31.139Z,95243.28
2023-01-17T00:13:03.463Z,95244.50
2023-01-17T00:15:33.916Z,95245.13
2023-01-17T00:18:05.379Z,95253.47
2023-01-17T00:20:51.782Z,95271.56
2023-01-17T00:23:56.809Z,95259.47
2023-01-17T00:26:26.771Z,95266.09
2023-01-17T00:28:54.469Z,95268.91
2023-01-17T00:31:23.294Z,95271.31
2023-01-17T00:33:52.993Z,95277.66
2023-01-17T00:36:21.750Z,95266.75
2023-01-17T00:38:49.917Z,95279.88
2023-01-17T00:41:19.282Z,95277.88
2023-01-17T00:44:06.332Z,95275.06
2023-01-17T00:46:53.080Z,95283.81
2023-01-17T00:49:41.266Z,95286.00
2023-01-17T00:52:28.650Z,95298.53
2023-01-17T00:55:16.073Z,95304.28
2023-01-17T00:58:02.817Z,95311.22
2023-01-17T01:00:50.047Z,95313.59
2023-01-17T01:03:36.748Z,95313.59
2023-01-17T01:06:26.679Z,95316.81
2023-01-17T01:09:14.780Z,95323.56
2023-01-17T01:12:02.648Z,95315.59
2023-01-17T01:14:51.220Z,95324.31
2023-01-17T01:17:38.046Z,95324.69
2023-01-17T01:20:25.966Z,95327.03
2023-01-17T01:23:14.505Z,95324.69
2023-01-17T01:26:01.737Z,95329.19
2023-01-17T01:28:48.736Z,95334.78
2023-01-17T01:31:35.510Z,95328.22
2023-01-17T01:34:05.457Z,95333.97
2023-01-17T01:36:35.046Z,95330.66
2023-01-17T01:39:07.119Z,95328.22
2023-01-17T01:41:37.524Z,95338.34
2023-01-17T01:44:47.469Z,95332.94
2023-01-17T01:47:25.841Z,95344.31
2023-01-17T01:49:54.853Z,95341.72
2023-01-17T01:52:30.600Z,95344.69
2023-01-17T01:55:06.018Z,95345.50
2023-01-17T01:57:48.046Z,95349.50
2023-01-17T02:00:24.921Z,95350.50
2023-01-17T02:03:00.625Z,95348.13
2023-01-17T02:05:32.271Z,95341.97
2023-01-17T02:08:05.878Z,95344.75
2023-01-17T02:10:39.409Z,95341.78
2023-01-17T02:13:11.192Z,95344.97
2023-01-17T02:15:59.469Z,95345.41
2023-01-17T02:18:46.836Z,95344.78
2023-01-17T02:21:26.245Z,95338.22
2023-01-17T02:25:10.634Z,95341.03
2023-01-17T02:28:05.920Z,95339.84
2023-01-17T02:30:41.093Z,95340.84
2023-01-17T02:33:34.857Z,95345.78
2023-01-17T02:36:15.705Z,95344.59
2023-01-17T02:38:57.120Z,95341.78
2023-01-17T02:41:37.098Z,95343.81
2023-01-17T02:44:09.219Z,95342.81
2023-01-17T02:46:47.273Z,95347.97
2023-01-17T02:49:18.256Z,95337.66
2023-01-17T02:52:11.450Z,95342.59
2023-01-17T02:55:14.911Z,95344.38
2023-01-17T02:58:05.937Z,95339.00
2023-01-17T03:00:52.437Z,95340.22
2023-01-17T03:03:35.203Z,95342.38
2023-01-17T03:06:14.005Z,95347.19
2023-01-17T03:08:47.997Z,95352.72
2023-01-17T03:11:17.512Z,95356.28
2023-01-17T03:13:47.333Z,95352.91
2023-01-17T03:16:22.823Z,95354.50
2023-01-17T03:18:55.576Z,95350.75
2023-01-17T03:21:27.351Z,95360.72
2023-01-17T03:23:57.344Z,95354.13
2023-01-17T03:26:28.044Z,95350.56
2023-01-17T03:28:57.561Z,95350.22
2023-01-17T03:31:26.934Z,95348.84
2023-01-17T03:33:58.163Z,95348.03
2023-01-17T03:36:27.068Z,95347.88
2023-01-17T03:38:56.931Z,95344.31
2023-01-17T03:41:27.037Z,95346.91
2023-01-17T03:43:55.524Z,95346.38
2023-01-17T03:46:29.255Z,95347.84
2023-01-17T03:49:00.280Z,95353.00
2023-01-17T03:51:29.282Z,95354.00
2023-01-17T03:53:59.378Z,95355.59
2023-01-17T03:56:29.910Z,95357.75
2023-01-17T03:58:58.891Z,95361.75
2023-01-17T04:01:28.688Z,95352.25
2023-01-17T04:04:01.225Z,95354.81
2023-01-17T04:06:31.938Z,95348.25
2023-01-17T04:09:01.883Z,95349.81
2023-01-17T04:11:32.479Z,95339.50
2023-01-17T04:14:01.782Z,95333.59
2023-01-17T04:16:34.262Z,95336.94
2023-01-17T04:19:05.065Z,95333.78
2023-01-17T04:21:35.487Z,95329.41
2023-01-17T04:24:04.348Z,95335.38
2023-01-17T04:26:34.344Z,95326.59
2023-01-17T04:29:03.710Z,95338.13
2023-01-17T04:31:33.280Z,95338.38
2023-01-17T04:34:04.877Z,95344.69
2023-01-17T04:36:34.865Z,95350.28
2023-01-17T04:39:05.701Z,95345.91
2023-01-17T04:41:35.801Z,95352.47
2023-01-17T04:44:06.301Z,95358.84
2023-01-17T04:46:36.353Z,95363.63
2023-01-17T04:49:08.537Z,95364.41
2023-01-17T04:51:39.085Z,95356.47
2023-01-17T04:54:09.144Z,95358.25
2023-01-17T04:56:38.508Z,95363.03
2023-01-17T04:59:09.106Z,95361.25
2023-01-17T05:01:38.659Z,95346.00
2023-01-17T05:04:11.243Z,95347.78
2023-01-17T05:06:40.727Z,95347.97
2023-01-17T05:09:10.905Z,95350.78
2023-01-17T05:11:41.913Z,95349.97
2023-01-17T05:14:12.064Z,95350.56
2023-01-17T05:16:42.206Z,95350.56
2023-01-17T05:19:14.078Z,95360.50
2023-01-17T05:21:44.229Z,95361.13
2023-01-17T05:24:14.315Z,95367.47
2023-01-17T05:26:44.250Z,95370.44
2023-01-17T05:29:13.424Z,95369.25
2023-01-17T05:31:42.925Z,95370.84
2023-01-17T05:34:15.228Z,95373.22
2023-01-17T05:36:44.544Z,95380.16
2023-01-17T05:39:15.229Z,95384.53
2023-01-17T05:41:45.316Z,95378.00
2023-01-17T05:44:16.909Z,95375.03
2023-01-17T05:46:45.978Z,95380.97
2023-01-17T05:49:17.713Z,95392.69
2023-01-17T05:51:47.114Z,95388.50
2023-01-17T05:54:16.642Z,95391.91
2023-01-17T05:56:46.723Z,95400.03
2023-01-17T05:59:28.527Z,95400.44
2023-01-17T06:02:02.602Z,95393.06
2023-01-17T06:04:33.929Z,95395.28
2023-01-17T06:07:02.375Z,95384.75
2023-01-17T06:09:31.839Z,95384.75
2023-01-17T06:12:01.742Z,95379.63
2023-01-17T06:14:31.152Z,95387.91
2023-01-17T06:17:00.701Z,95378.03
2023-01-17T06:19:31.185Z,95377.63
2023-01-17T06:22:02.072Z,95385.38
2023-01-17T06:24:32.150Z,95382.00
2023-01-17T06:27:01.355Z,95378.03
2023-01-17T06:29:31.186Z,95386.19
2023-01-17T06:32:01.909Z,95386.97
2023-01-17T06:34:31.017Z,95397.28
2023-01-17T06:37:02.873Z,95389.16
2023-01-17T06:39:32.973Z,95394.88
2023-01-17T06:42:02.975Z,95398.66
2023-01-17T06:44:33.064Z,95402.03
2023-01-17T06:47:02.461Z,95394.88
2023-01-17T06:49:32.007Z,95392.91
2023-01-17T06:52:04.430Z,95383.78
2023-01-17T06:54:34.953Z,95382.22
2023-01-17T06:57:05.129Z,95385.59
2023-01-17T06:59:34.896Z,95382.78
2023-01-17T07:02:04.266Z,95373.47
2023-01-17T07:04:36.085Z,95370.88
2023-01-17T07:07:08.161Z,95370.50
2023-01-17T07:09:38.239Z,95376.84
2023-01-17T07:12:09.155Z,95371.53
2023-01-17T07:14:38.171Z,95372.50
2023-01-17T07:17:07.090Z,95370.13
2023-01-17T07:19:37.523Z,95363.78
2023-01-17T07:22:07.998Z,95368.94
2023-01-17T07:24:38.490Z,95369.34
2023-01-17T07:27:09.070Z,95366.38
2023-01-17T07:29:38.013Z,95372.09
2023-01-17T07:32:09.581Z,95361.78
2023-01-17T07:34:39.105Z,95370.50
2023-01-17T07:37:10.454Z,95371.69
2023-01-17T07:39:41.544Z,95370.31
2023-01-17T07:42:12.247Z,95366.56
2023-01-17T07:44:44.578Z,95373.69
2023-01-17T07:47:14.395Z,95370.91
2023-01-17T07:49:43.884Z,95370.50
2023-01-17T07:52:16.873Z,95375.66
2023-01-17T07:54:47.409Z,95367.13
2023-01-17T07:57:16.486Z,95370.91
2023-01-17T07:59:46.106Z,95370.50
2023-01-17T08:02:19.501Z,95367.75
2023-01-17T08:04:49.465Z,95357.03
2023-01-17T08:07:19.728Z,95353.88
2023-01-17T08:09:51.161Z,95357.81
2023-01-17T08:12:20.623Z,95360.97
2023-01-17T08:14:50.965Z,95359.81
2023-01-17T08:17:21.789Z,95361.00
2023-01-17T08:19:53.697Z,95368.91
2023-01-17T08:22:25.509Z,95362.53
2023-01-17T08:24:54.444Z,95366.53
2023-01-17T08:27:23.819Z,95364.53
2023-01-17T08:29:53.201Z,95364.94
2023-01-17T08:32:23.376Z,95355.00
2023-01-17T08:34:53.269Z,95357.97
2023-01-17T08:37:23.612Z,95360.72
2023-01-17T08:39:53.162Z,95356.56
2023-01-17T08:42:22.526Z,95358.75
2023-01-17T08:44:52.081Z,95357.94
2023-01-17T08:47:21.629Z,95355.38
2023-01-17T08:49:53.261Z,95365.69
2023-01-17T08:52:24.826Z,95372.44
2023-01-17T08:54:55.362Z,95376.38
2023-01-17T08:57:24.623Z,95371.59
2023-01-17T08:59:54.156Z,95376.97
2023-01-17T09:02:24.925Z,95356.72
2023-01-17T09:04:55.799Z,95359.69
2023-01-17T09:07:27.041Z,95362.84
2023-01-17T09:09:56.965Z,95362.84
2023-01-17T09:12:26.311Z,95350.13
2023-01-17T09:14:57.020Z,95361.84
2023-01-17T09:17:26.794Z,95363.19
2023-01-17T09:19:55.838Z,95356.06
2023-01-17T09:22:28.046Z,95352.47
2023-01-17T09:24:57.637Z,95348.50
2023-01-17T09:27:27.736Z,95348.50
2023-01-17T09:29:57.384Z,95342.34
2023-01-17T09:32:27.030Z,95341.31
2023-01-17T09:34:58.003Z,95344.28
2023-01-17T09:37:29.487Z,95344.09
2023-01-17T09:39:59.993Z,95337.94
2023-01-17T09:42:38.796Z,95342.50
2023-01-17T09:45:19.776Z,95337.94
2023-01-17T09:47:53.180Z,95338.94
2023-01-17T09:50:33.580Z,95344.09
2023-01-17T09:53:07.765Z,95339.31
2023-01-17T09:55:54.896Z,95335.94
2023-01-17T09:58:36.175Z,95339.31
2023-01-17T10:01:18.565Z,95342.09
2023-01-17T10:04:13.133Z,95332.38
2023-01-17T10:06:59.489Z,95345.28
2023-01-17T10:09:52.775Z,95338.94
2023-01-17T10:12:37.744Z,95339.91
2023-01-17T10:15:36.320Z,95339.72
2023-01-17T10:18:34.301Z,95341.94
2023-01-17T10:21:14.145Z,95349.66
2023-01-17T10:24:16.870Z,95344.91
2023-01-17T10:26:51.691Z,95353.66
2023-01-17T10:29:22.047Z,95349.69
2023-01-17T10:31:58.546Z,95353.66
2023-01-17T10:34:36.315Z,95354.81
2023-01-17T10:37:19.670Z,95347.66
2023-01-17T10:39:53.978Z,95351.25
2023-01-17T10:42:33.870Z,95341.72
2023-01-17T10:45:16.904Z,95337.72
2023-01-17T10:47:59.983Z,95336.94
2023-01-17T10:50:33.393Z,95336.53
2023-01-17T10:53:18.488Z,95333.75
2023-01-17T10:55:55.247Z,95328.16
2023-01-17T10:58:27.979Z,95328.16
2023-01-17T11:01:03.314Z,95321.22
2023-01-17T11:03:33.957Z,95320.22
2023-01-17T11:06:22.609Z,95309.91
2023-01-17T11:08:57.025Z,95314.66
2023-01-17T11:11:32.017Z,95315.06
2023-01-17T11:14:08.232Z,95312.47
2023-01-17T11:16:40.137Z,95306.09
2023-01-17T11:19:23.081Z,95303.94
2023-01-17T11:21:57.777Z,95292.81
2023-01-17T11:24:36.376Z,95294.84
2023-01-17T11:27:09.502Z,95298.00
2023-01-17T11:29:43.157Z,95294.84
2023-01-17T11:32:33.136Z,95299.59
2023-01-17T11:35:20.743Z,95304.31
2023-01-17T11:38:07.271Z,95293.59
2023-01-17T11:40:41.251Z,95290.38
2023-01-17T11:43:26.282Z,95288.38
2023-01-17T11:46:20.483Z,95276.84
2023-01-17T11:48:55.053Z,95274.84
2023-01-17T11:51:32.295Z,95276.03
2023-01-17T11:54:19.891Z,95263.69
2023-01-17T11:56:51.868Z,95263.25
2023-01-17T11:59:34.733Z,95259.13
2023-01-17T12:02:47.442Z,95252.94
2023-01-17T12:05:41.952Z,95243.78
2023-01-17T12:08:31.013Z,95243.34
2023-01-17T12:11:13.099Z,95236.19
2023-01-17T12:14:11.792Z,95236.75
2023-01-17T12:17:12.196Z,95232.41
2023-01-17T12:20:01.831Z,95225.81
2023-01-17T12:22:52.447Z,95226.75
2023-01-17T12:25:38.893Z,95222.19
2023-01-17T12:28:29.334Z,95217.38
2023-01-17T12:31:24.591Z,95222.31
2023-01-17T12:34:00.519Z,95215.56
2023-01-17T12:36:48.565Z,95211.00
2023-01-17T12:39:26.838Z,95219.31
2023-01-17T12:42:06.592Z,95208.53
2023-01-17T12:44:55.298Z,95210.56
2023-01-17T12:47:25.969Z,95214.13
2023-01-17T12:50:07.891Z,95214.13
2023-01-17T12:52:55.072Z,95209.75
2023-01-17T12:55:50.591Z,95201.22
2023-01-17T12:58:24.230Z,95198.63
2023-01-17T13:01:04.109Z,95200.22
2023-01-17T13:03:49.620Z,95204.97
2023-01-17T13:06:34.608Z,95202.19
2023-01-17T13:09:07.618Z,95190.63
2023-01-17T13:11:46.598Z,95191.78
2023-01-17T13:14:17.275Z,95185.59
2023-01-17T13:16:58.442Z,95185.38
2023-01-17T13:19:42.937Z,95191.78
2023-01-17T13:22:18.303Z,95194.13
2023-01-17T13:25:08.361Z,95190.91
2023-01-17T13:28:04.091Z,95188.69
2023-01-17T13:31:15.428Z,95180.16
2023-01-17T13:34:05.852Z,95174.97
2023-01-17T13:36:55.134Z,95157.47
2023-01-17T13:40:07.157Z,95165.78
2023-01-17T13:42:54.707Z,95157.03
2023-01-17T13:45:28.759Z,95160.63
2023-01-17T13:48:27.954Z,95158.97
2023-01-17T13:50:58.462Z,95164.13
2023-01-17T13:54:31.519Z,95163.34
2023-01-17T13:57:44.843Z,95162.34
2023-01-17T14:00:51.791Z,95165.72
2023-01-17T14:04:03.895Z,95157.75
2023-01-17T14:06:43.655Z,95160.91
2023-01-17T14:09:24.947Z,95160.69
2023-01-17T14:12:06.901Z,95156.53
2023-01-17T14:14:57.510Z,95162.50
2023-01-17T14:17:57.519Z,95161.25
2023-01-17T14:21:07.577Z,95155.53
2023-01-17T14:24:05.013Z,95159.69
2023-01-17T14:26:52.838Z,95160.69
2023-01-17T14:29:59.356Z,95162.50
2023-01-17T14:32:34.114Z,95173.28
2023-01-17T14:35:05.156Z,95169.66
2023-01-17T14:37:50.691Z,95170.25
2023-01-17T14:40:26.597Z,95166.28
2023-01-17T14:43:02.494Z,95179.88
2023-01-17T14:45:36.336Z,95183.69
2023-01-17T14:48:13.254Z,95186.25
2023-01-17T14:50:44.768Z,95192.06
2023-01-17T14:53:23.388Z,95192.94
2023-01-17T14:55:57.175Z,95192.94
2023-01-17T14:58:29.291Z,95197.31
2023-01-17T15:01:04.066Z,95200.44
2023-01-17T15:03:44.772Z,95199.47
2023-01-17T15:06:19.761Z,95201.25
2023-01-17T15:08:50.937Z,95204.25
2023-01-17T15:11:27.509Z,95206.47
2023-01-17T15:14:00.874Z,95198.72
2023-01-17T15:16:35.436Z,95195.91
2023-01-17T15:19:13.247Z,95199.53
2023-01-17T15:21:46.229Z,95198.50
2023-01-17T15:24:20.878Z,95193.34
2023-01-17T15:26:51.112Z,95192.22
2023-01-17T15:29:27.291Z,95191.06
2023-01-17T15:32:00.044Z,95193.03
2023-01-17T15:34:32.974Z,95190.31
2023-01-17T15:37:05.888Z,95195.75
2023-01-17T15:39:40.168Z,95190.47
2023-01-17T15:42:24.062Z,95202.03
2023-01-17T15:44:58.984Z,95208.06
2023-01-17T15:47:33.552Z,95216.38
2023-01-17T15:50:26.361Z,95209.28
2023-01-17T15:52:59.122Z,95209.78
2023-01-17T15:55:33.203Z,95220.16
2023-01-17T15:58:04.489Z,95220.19
2023-01-17T16:00:42.475Z,95221.19
2023-01-17T16:03:29.296Z,95215.28
2023-01-17T16:06:03.644Z,95209.97
2023-01-17T16:08:40.681Z,95213.16
2023-01-17T16:11:15.684Z,95221.31
2023-01-17T16:13:47.444Z,95222.31
2023-01-17T16:16:22.588Z,95222.31
2023-01-17T16:19:02.242Z,95211.25
2023-01-17T16:21:32.482Z,95220.03
2023-01-17T16:24:02.970Z,95221.84
2023-01-17T16:26:33.077Z,95211.09
2023-01-17T16:29:03.266Z,95221.44
2023-01-17T16:31:33.788Z,95219.03
2023-01-17T16:34:04.755Z,95220.47
2023-01-17T16:36:34.927Z,95217.31
2023-01-17T16:39:04.009Z,95218.53
2023-01-17T16:41:33.005Z,95219.47
2023-01-17T16:44:05.492Z,95213.75
2023-01-17T16:46:39.043Z,95221.13
2023-01-17T16:49:09.619Z,95222.91
2023-01-17T16:51:38.595Z,95224.09
2023-01-17T16:54:08.532Z,95230.03
2023-01-17T16:56:37.368Z,95231.84
2023-01-17T16:59:05.837Z,95230.66
2023-01-17T17:01:34.834Z,95226.69
2023-01-17T17:04:03.457Z,95230.69
2023-01-17T17:06:35.089Z,95226.53
2023-01-17T17:09:04.869Z,95231.06
2023-01-17T17:11:34.083Z,95237.25
2023-01-17T17:14:04.674Z,95234.06
2023-01-17T17:16:34.027Z,95238.03
2023-01-17T17:19:05.238Z,95237.03
2023-01-17T17:21:38.701Z,95227.50
2023-01-17T17:24:08.934Z,95232.91
2023-01-17T17:26:40.069Z,95231.72
2023-01-17T17:29:12.985Z,95224.78
2023-01-17T17:31:43.948Z,95223.75
2023-01-17T17:34:15.483Z,95225.75
2023-01-17T17:36:47.683Z,95219.44
2023-01-17T17:39:17.450Z,95226.59
2023-01-17T17:41:48.221Z,95219.25
2023-01-17T17:44:17.857Z,95223.41
2023-01-17T17:46:49.948Z,95228.97
2023-01-17T17:49:21.039Z,95228.97
2023-01-17T17:51:51.921Z,95231.38
2023-01-17T17:54:22.193Z,95227.78
2023-01-17T17:56:51.418Z,95242.25
2023-01-17T17:59:22.884Z,95240.50
2023-01-17T18:01:53.222Z,95241.09
2023-01-17T18:04:22.949Z,95236.16
2023-01-17T18:06:52.894Z,95238.13
2023-01-17T18:09:22.673Z,95245.06
2023-01-17T18:11:51.729Z,95249.78
2023-01-17T18:14:24.431Z,95251.22
2023-01-17T18:16:53.434Z,95261.91
2023-01-17T18:19:26.114Z,95265.09
2023-01-17T18:21:58.199Z,95267.06
2023-01-17T18:24:29.598Z,95273.78
2023-01-17T18:26:59.614Z,95286.69
2023-01-17T18:29:29.921Z,95291.06
2023-01-17T18:31:59.594Z,95297.00
2023-01-17T18:34:31.032Z,95301.19
2023-01-17T18:37:02.265Z,95299.19
2023-01-17T18:39:38.505Z,95308.50
2023-01-17T18:42:08.709Z,95311.47
2023-01-17T18:44:39.445Z,95311.06
2023-01-17T18:47:13.626Z,95300.16
2023-01-17T18:49:43.756Z,95309.50
2023-01-17T18:52:16.120Z,95306.13
2023-01-17T18:54:44.536Z,95308.69
2023-01-17T18:57:14.296Z,95311.50
2023-01-17T18:59:45.131Z,95315.84
2023-01-17T19:02:14.591Z,95323.75
2023-01-17T19:04:43.819Z,95323.19
2023-01-17T19:07:15.441Z,95322.19
2023-01-17T19:09:44.757Z,95323.78
2023-01-17T19:12:15.534Z,95333.66
2023-01-17T19:14:45.147Z,95327.72
2023-01-17T19:17:14.551Z,95336.84
2023-01-17T19:19:44.665Z,95331.91
2023-01-17T19:22:15.519Z,95332.09
2023-01-17T19:24:44.520Z,95341.22
2023-01-17T19:27:14.705Z,95345.16
2023-01-17T19:29:43.641Z,95346.16
2023-01-17T19:32:13.009Z,95344.78
2023-01-17T19:34:43.315Z,95351.50
2023-01-17T19:37:14.585Z,95353.88
2023-01-17T19:39:46.429Z,95353.88
2023-01-17T19:42:16.507Z,95355.88
2023-01-17T19:44:46.609Z,95358.63
2023-01-17T19:47:16.063Z,95354.69
2023-01-17T19:49:46.425Z,95354.06
2023-01-17T19:52:18.619Z,95350.72
2023-01-17T19:54:48.756Z,95356.06
2023-01-17T19:57:18.451Z,95352.50
2023-01-17T19:59:47.884Z,95360.22
2023-01-17T20:02:18.670Z,95360.63
2023-01-17T20:04:47.491Z,95356.63
2023-01-17T20:07:17.884Z,95363.38
2023-01-17T20:09:46.806Z,95361.59
2023-01-17T20:12:17.126Z,95362.78
2023-01-17T20:14:47.154Z,95366.13
2023-01-17T20:17:16.683Z,95364.56
2023-01-17T20:19:47.004Z,95365.53
2023-01-17T20:22:17.970Z,95369.50
2023-01-17T20:24:48.170Z,95366.94
2023-01-17T20:27:19.510Z,95366.34
2023-01-17T20:29:50.414Z,95369.50
2023-01-17T20:32:19.590Z,95376.25
2023-01-17T20:34:50.695Z,95373.66
2023-01-17T20:37:20.603Z,95370.13
2023-01-17T20:39:49.969Z,95371.91
2023-01-17T20:42:19.373Z,95371.28
2023-01-17T20:44:50.593Z,95372.88
2023-01-17T20:47:21.559Z,95374.88
2023-01-17T20:49:52.015Z,95374.88
2023-01-17T20:52:21.919Z,95384.16
2023-01-17T20:54:52.309Z,95381.56
2023-01-17T20:57:21.818Z,95381.56
2023-01-17T20:59:52.366Z,95376.44
2023-01-17T21:02:23.024Z,95376.06
2023-01-17T21:04:52.039Z,95373.50
2023-01-17T21:07:23.727Z,95375.84
2023-01-17T21:09:53.141Z,95381.97
2023-01-17T21:12:24.000Z,95377.63
2023-01-17T21:14:53.839Z,95378.44
2023-01-17T21:17:22.836Z,95377.63
2023-01-17T21:19:52.806Z,95384.38
2023-01-17T21:22:24.067Z,95380.81
2023-01-17T21:24:54.704Z,95381.00
2023-01-17T21:27:23.673Z,95385.34
2023-01-17T21:29:54.179Z,95387.13
2023-01-17T21:32:22.577Z,95382.78
2023-01-17T21:34:53.709Z,95380.59
2023-01-17T21:37:24.040Z,95381.22
2023-01-17T21:39:55.439Z,95385.97
2023-01-17T21:42:26.301Z,95394.28
2023-01-17T21:44:56.814Z,95386.38
2023-01-17T21:47:25.492Z,95385.97
2023-01-17T21:49:54.436Z,95390.31
2023-01-17T21:52:24.486Z,95391.91
2023-01-17T21:55:11.421Z,95389.13
2023-01-17T21:57:57.904Z,95397.66
2023-01-17T22:00:28.564Z,95397.06
2023-01-17T22:02:59.045Z,95391.69
2023-01-17T22:05:29.237Z,95391.50
2023-01-17T22:08:16.013Z,95390.13
2023-01-17T22:10:48.983Z,95391.69
2023-01-17T22:13:19.830Z,95390.72
2023-01-17T22:16:00.703Z,95396.44
2023-01-17T22:18:31.255Z,95393.50
2023-01-17T22:21:05.830Z,95391.13
2023-01-17T22:23:37.507Z,95391.13
2023-01-17T22:26:09.884Z,95397.25
2023-01-17T22:28:40.715Z,95396.66
2023-01-17T22:31:13.456Z,95393.88
2023-01-17T22:33:46.169Z,95397.06
2023-01-17T22:36:16.911Z,95395.06
2023-01-17T22:38:48.096Z,95400.03
2023-01-17T22:41:20.185Z,95401.81
2023-01-17T22:43:52.621Z,95395.47
2023-01-17T22:46:25.732Z,95400.84
2023-01-17T22:48:56.185Z,95402.41
2023-01-17T22:51:28.132Z,95396.66
2023-01-17T22:54:02.459Z,95398.22
2023-01-17T22:56:33.656Z,95390.31
2023-01-17T22:59:08.200Z,95403.38
2023-01-17T23:01:38.634Z,95404.00
2023-01-17T23:04:08.083Z,95409.13
2023-01-17T23:06:39.555Z,95398.63
2023-01-17T23:09:13.053Z,95396.25
2023-01-17T23:11:46.903Z,95400.63
2023-01-17T23:14:19.939Z,95406.16
2023-01-17T23:17:10.300Z,95399.63
2023-01-17T23:19:42.245Z,95399.81
2023-01-17T23:22:19.349Z,95397.06
2023-01-17T23:24:54.882Z,95395.06
2023-01-17T23:27:44.805Z,95393.47
2023-01-17T23:30:18.063Z,95392.91
2023-01-17T23:32:49.958Z,95391.50
2023-01-17T23:35:21.706Z,95393.69
2023-01-17T23:38:07.792Z,95391.50
2023-01-17T23:40:39.787Z,95398.63
2023-01-17T23:43:24.943Z,95396.03
2023-01-17T23:45:55.537Z,95401.41
2023-01-17T23:48:27.351Z,95402.16
2023-01-17T23:51:00.743Z,95404.75
2023-01-17T23:53:29.921Z,95413.25
2023-01-17T23:56:05.949Z,95400.00
2023-01-17T23:58:36.144Z,95404.94
